This is the latest recevied weather packets stored in our database for station/object IW3HBX-13. If no packets are shown the sender has not sent any weather packets the latest 10 day(s).
| Time | Temp. | Humidity | Pressure | Rain* | Wind** | Luminosity | Snow |
|---|---|---|---|---|---|---|---|
| 1777917970 | 20° C | 65% | 1015.7 hPa | 0 mm | - | 10 W/m² | - |
| 1777917248 | 20.56° C | 64% | 1015.5 hPa | 0 mm | - | 18 W/m² | - |
| 1777916887 | 20.56° C | 63% | 1015.5 hPa | 0 mm | - | 23 W/m² | - |
| 1777916527 | 21.11° C | 61% | 1015.6 hPa | 0 mm | - | 30 W/m² | - |
| 1777916167 | 21.11° C | 60% | 1015.5 hPa | 0 mm | - | 37 W/m² | - |
| 1777915807 | 21.11° C | 59% | 1015.6 hPa | 0 mm | - | 43 W/m² | - |
| 1777915449 | 21.11° C | 59% | 1015.6 hPa | 0 mm | - | 45 W/m² | - |
| 1777915087 | 21.11° C | 59% | 1015.6 hPa | 0 mm | - | 46 W/m² | - |
| 1777914727 | 21.67° C | 58% | 1015.6 hPa | 0 mm | - | 50 W/m² | - |
| 1777914368 | 21.67° C | 56% | 1015.7 hPa | 0 mm | - | 56 W/m² | - |
| 1777913648 | 22.22° C | 55% | 1015.6 hPa | 0 mm | - | 75 W/m² | - |
| 1777913289 | 22.22° C | 55% | 1015.6 hPa | 0 mm | - | 88 W/m² | - |
| 1777912930 | 22.22° C | 54% | 1015.6 hPa | 0 mm | - | 100 W/m² | - |
| 1777912569 | 22.22° C | 54% | 1015.7 hPa | 0 mm | - | 85 W/m² | - |
| 1777912207 | 22.78° C | 54% | 1015.8 hPa | 0 mm | - | 86 W/m² | - |
| 1777911847 | 23.33° C | 52% | 1015.8 hPa | 0 mm | - | 86 W/m² | - |
| 1777911487 | 23.89° C | 50% | 1015.8 hPa | 0 mm | - | 102 W/m² | - |
| 1777911130 | 23.89° C | 48% | 1015.7 hPa | 0 mm | - | 152 W/m² | - |
| 1777910769 | 23.89° C | 48% | 1015.8 hPa | 0 mm | - | 215 W/m² | - |
| 1777910048 | 23.89° C | 48% | 1015.8 hPa | 0 mm | - | 293 W/m² | - |
| 1777909687 | 23.33° C | 51% | 1015.8 hPa | 0 mm | - | 262 W/m² | - |
| 1777909327 | 23.33° C | 53% | 1015.8 hPa | 0 mm | - | 181 W/m² | - |
| 1777908969 | 23.33° C | 52% | 1015.8 hPa | 0 mm | - | 165 W/m² | - |
| 1777908610 | 23.33° C | 51% | 1015.8 hPa | 0 mm | - | 158 W/m² | - |
| 1777908247 | 23.33° C | 55% | 1015.8 hPa | 0 mm | - | 154 W/m² | - |
* Rain latest hour (hover to see other rain measurements)
** Current wind speed in m/s (hover to see current wind gust speed)